createdAt,value
2023-04-15T00:00:57.399Z,4.40
2023-04-15T00:03:24.451Z,3.80
2023-04-15T00:05:52.805Z,6.75
2023-04-15T00:08:19.681Z,4.20
2023-04-15T00:10:46.740Z,6.00
2023-04-15T00:13:13.729Z,5.25
2023-04-15T00:15:40.689Z,4.03
2023-04-15T00:18:07.543Z,6.97
2023-04-15T00:20:34.449Z,2.97
2023-04-15T00:23:02.722Z,3.67
2023-04-15T00:25:29.600Z,4.38
2023-04-15T00:27:56.596Z,4.50
2023-04-15T00:30:23.453Z,2.92
2023-04-15T00:32:50.304Z,4.20
2023-04-15T00:35:17.304Z,4.05
2023-04-15T00:37:46.047Z,3.88
2023-04-15T00:40:14.755Z,2.88
2023-04-15T00:42:41.623Z,3.05
2023-04-15T00:45:09.334Z,3.85
2023-04-15T00:47:36.561Z,5.50
2023-04-15T00:50:03.495Z,5.00
2023-04-15T00:52:30.352Z,5.25
2023-04-15T00:54:57.207Z,3.63
2023-04-15T00:57:25.439Z,4.50
2023-04-15T00:59:52.631Z,4.55
2023-04-15T01:02:19.830Z,5.43
2023-04-15T01:04:46.799Z,3.28
2023-04-15T01:07:13.646Z,5.53
2023-04-15T01:09:40.510Z,4.90
2023-04-15T01:12:07.549Z,4.53
2023-04-15T01:14:35.794Z,4.90
2023-04-15T01:17:02.679Z,3.75
2023-04-15T01:19:29.547Z,5.32
2023-04-15T01:21:56.418Z,3.97
2023-04-15T01:24:23.290Z,4.65
2023-04-15T01:26:51.529Z,5.82
2023-04-15T01:29:18.369Z,4.45
2023-04-15T01:31:50.569Z,4.13
2023-04-15T01:34:17.479Z,5.10
2023-04-15T01:36:44.364Z,6.60
2023-04-15T01:39:11.209Z,6.38
2023-04-15T01:41:38.135Z,6.20
2023-04-15T01:44:06.399Z,4.05
2023-04-15T01:46:33.339Z,4.95
2023-04-15T01:49:00.306Z,4.18
2023-04-15T01:51:27.234Z,4.25
2023-04-15T01:53:54.111Z,4.72
2023-04-15T01:56:20.979Z,7.15
2023-04-15T01:58:48.103Z,4.90
2023-04-15T02:01:16.365Z,4.82
2023-04-15T02:03:43.371Z,7.40
2023-04-15T02:06:10.295Z,3.97
2023-04-15T02:08:37.161Z,3.88
2023-04-15T02:11:04.039Z,3.22
2023-04-15T02:13:30.892Z,7.68
2023-04-15T02:15:57.745Z,5.03
2023-04-15T02:18:26.041Z,4.43
2023-04-15T02:20:52.911Z,5.85
2023-04-15T02:23:19.774Z,6.18
2023-04-15T02:25:53.407Z,8.23
2023-04-15T02:28:21.298Z,2.83
2023-04-15T02:30:48.595Z,5.88
2023-04-15T02:33:15.474Z,6.00
2023-04-15T02:35:43.688Z,5.90
2023-04-15T02:38:10.549Z,7.25
2023-04-15T02:40:37.443Z,5.15
2023-04-15T02:43:04.325Z,4.25
2023-04-15T02:45:31.165Z,3.85
2023-04-15T02:47:58.069Z,4.82
2023-04-15T02:50:24.951Z,3.33
2023-04-15T02:52:53.216Z,4.72
2023-04-15T02:55:20.108Z,5.47
2023-04-15T02:57:46.982Z,4.82
2023-04-15T03:00:14.590Z,4.28
2023-04-15T03:02:41.524Z,4.88
2023-04-15T03:05:11.675Z,3.50
2023-04-15T03:07:38.568Z,3.75
2023-04-15T03:10:07.958Z,6.45
2023-04-15T03:12:34.808Z,5.47
2023-04-15T03:15:01.773Z,4.28
2023-04-15T03:17:28.698Z,5.75
2023-04-15T03:19:55.697Z,3.08
2023-04-15T03:22:22.660Z,3.63
2023-04-15T03:24:49.511Z,2.80
2023-04-15T03:27:17.748Z,5.93
2023-04-15T03:29:44.629Z,4.97
2023-04-15T03:32:11.483Z,2.70
2023-04-15T03:34:38.353Z,5.88
2023-04-15T03:37:05.703Z,5.70
2023-04-15T03:39:32.598Z,3.33
2023-04-15T03:41:59.448Z,3.25
2023-04-15T03:44:28.047Z,4.88
2023-04-15T03:46:54.941Z,3.80
2023-04-15T03:49:21.846Z,4.22
2023-04-15T03:51:48.696Z,5.57
2023-04-15T03:54:15.528Z,4.07
2023-04-15T03:56:42.403Z,6.05
2023-04-15T03:59:09.257Z,8.35
2023-04-15T04:01:37.503Z,5.93
2023-04-15T04:04:04.485Z,4.25
2023-04-15T04:06:31.514Z,3.80
2023-04-15T04:08:58.400Z,3.15
2023-04-15T04:11:25.280Z,3.05
2023-04-15T04:13:52.287Z,7.07
2023-04-15T04:16:19.223Z,5.70
2023-04-15T04:18:47.512Z,3.67
2023-04-15T04:21:14.410Z,4.22
2023-04-15T04:23:41.249Z,4.63
2023-04-15T04:26:08.114Z,7.65
2023-04-15T04:28:34.969Z,4.43
2023-04-15T04:31:01.817Z,4.40
2023-04-15T04:33:28.669Z,3.25
2023-04-15T04:35:56.890Z,3.65
2023-04-15T04:38:23.807Z,5.18
2023-04-15T04:40:50.646Z,4.75
2023-04-15T04:43:17.507Z,4.45
2023-04-15T04:45:44.389Z,4.72
2023-04-15T04:48:11.278Z,5.15
2023-04-15T04:50:38.167Z,7.28
2023-04-15T04:53:06.391Z,8.73
2023-04-15T04:55:33.267Z,6.03
2023-04-15T04:58:00.177Z,2.67
2023-04-15T05:00:27.042Z,5.55
2023-04-15T05:02:54.131Z,2.75
2023-04-15T05:05:21.338Z,4.07
2023-04-15T05:07:48.178Z,3.85
2023-04-15T05:10:16.613Z,3.42
2023-04-15T05:12:43.498Z,4.35
2023-04-15T05:15:10.977Z,4.43
2023-04-15T05:17:37.861Z,4.32
2023-04-15T05:20:05.426Z,6.85
2023-04-15T05:22:32.342Z,5.13
2023-04-15T05:24:59.210Z,6.25
2023-04-15T05:27:27.461Z,3.63
2023-04-15T05:29:54.328Z,6.70
2023-04-15T05:32:21.217Z,3.88
2023-04-15T05:34:48.101Z,4.45
2023-04-15T05:37:14.958Z,4.70
2023-04-15T05:39:41.794Z,4.90
2023-04-15T05:42:08.640Z,4.40
2023-04-15T05:44:36.873Z,4.55
2023-04-15T05:47:03.724Z,5.28
2023-04-15T05:49:30.579Z,5.18
2023-04-15T05:51:57.432Z,4.78
2023-04-15T05:54:24.318Z,2.75
2023-04-15T05:56:51.173Z,4.53
2023-04-15T05:59:18.026Z,8.05
2023-04-15T06:01:46.342Z,4.85
2023-04-15T06:04:13.365Z,5.20
2023-04-15T06:06:40.309Z,6.18
2023-04-15T06:09:07.167Z,7.40
2023-04-15T06:11:34.039Z,6.82
2023-04-15T06:14:00.898Z,5.60
2023-04-15T06:16:27.804Z,3.53
2023-04-15T06:18:56.081Z,6.35
2023-04-15T06:21:22.945Z,8.63
2023-04-15T06:23:49.833Z,4.85
2023-04-15T06:26:16.684Z,5.95
2023-04-15T06:28:43.535Z,4.00
2023-04-15T06:31:10.388Z,5.85
2023-04-15T06:33:37.254Z,7.53
2023-04-15T06:36:05.774Z,6.53
2023-04-15T06:38:32.630Z,3.67
2023-04-15T06:40:59.508Z,4.45
2023-04-15T06:43:26.382Z,6.03
2023-04-15T06:45:53.335Z,3.80
2023-04-15T06:48:20.185Z,5.50
2023-04-15T06:50:47.041Z,6.95
2023-04-15T06:53:15.292Z,4.00
2023-04-15T06:55:42.145Z,5.53
2023-04-15T06:58:08.971Z,5.15
2023-04-15T07:00:35.843Z,6.25
2023-04-15T07:03:02.731Z,3.97
2023-04-15T07:05:29.670Z,3.75
2023-04-15T07:07:56.802Z,4.40
2023-04-15T07:10:25.702Z,3.95
2023-04-15T07:12:52.672Z,4.93
2023-04-15T07:15:19.721Z,3.95
2023-04-15T07:17:46.662Z,4.32
2023-04-15T07:20:13.747Z,3.55
2023-04-15T07:22:40.646Z,4.57
2023-04-15T07:25:08.654Z,4.28
2023-04-15T07:27:36.912Z,5.03
2023-04-15T07:30:04.253Z,6.18
2023-04-15T07:32:31.164Z,2.50
2023-04-15T07:34:58.058Z,7.95
2023-04-15T07:37:24.978Z,5.10
2023-04-15T07:39:51.846Z,6.53
2023-04-15T07:42:18.743Z,3.67
2023-04-15T07:44:46.992Z,3.63
2023-04-15T07:47:13.856Z,4.32
2023-04-15T07:49:41.820Z,3.92
2023-04-15T07:52:08.711Z,7.03
2023-04-15T07:54:35.563Z,2.15
2023-04-15T07:57:02.440Z,3.63
2023-04-15T07:59:29.858Z,3.55
2023-04-15T08:01:58.142Z,5.38
2023-04-15T08:04:25.220Z,5.32
2023-04-15T08:06:52.246Z,4.90
2023-04-15T08:09:19.115Z,4.13
2023-04-15T08:11:46.700Z,3.40
2023-04-15T08:14:13.589Z,4.07
2023-04-15T08:16:40.480Z,3.55
2023-04-15T08:19:08.733Z,4.93
2023-04-15T08:21:35.582Z,2.42
2023-04-15T08:24:02.445Z,4.03
2023-04-15T08:26:29.335Z,3.88
2023-04-15T08:28:56.420Z,4.35
2023-04-15T08:31:23.351Z,2.35
2023-04-15T08:33:50.477Z,4.18
2023-04-15T08:36:19.393Z,3.30
2023-04-15T08:38:46.238Z,3.40
2023-04-15T08:41:18.714Z,3.15
2023-04-15T08:43:47.945Z,3.33
2023-04-15T08:46:15.021Z,2.30
2023-04-15T08:48:41.919Z,2.83
2023-04-15T08:51:08.789Z,4.47
2023-04-15T08:53:37.149Z,4.18
2023-04-15T08:56:05.427Z,1.75
2023-04-15T08:58:32.302Z,3.13
2023-04-15T09:00:59.173Z,3.45
2023-04-15T09:03:26.148Z,2.15
2023-04-15T09:05:53.387Z,1.98
2023-04-15T09:08:20.331Z,4.72
2023-04-15T09:10:48.614Z,3.60
2023-04-15T09:13:15.478Z,4.03
2023-04-15T09:15:42.341Z,3.53
2023-04-15T09:18:11.552Z,1.85
2023-04-15T09:20:39.465Z,2.33
2023-04-15T09:23:12.162Z,2.17
2023-04-15T09:25:38.997Z,2.50
2023-04-15T09:28:07.278Z,3.30
2023-04-15T09:30:34.230Z,2.30
2023-04-15T09:33:01.696Z,2.20
2023-04-15T09:35:28.658Z,1.65
2023-04-15T09:38:02.553Z,2.88
2023-04-15T09:42:59.374Z,2.60
2023-04-15T09:45:29.655Z,1.80
2023-04-15T09:47:58.994Z,3.13
2023-04-15T09:50:27.887Z,3.97
2023-04-15T09:52:54.756Z,9.13
2023-04-15T09:55:21.631Z,3.25
2023-04-15T09:57:48.546Z,3.80
2023-04-15T10:00:15.859Z,6.68
2023-04-15T10:02:45.355Z,4.05
2023-04-15T10:05:13.944Z,4.82
2023-04-15T10:07:40.796Z,6.43
2023-04-15T10:10:08.356Z,8.98
2023-04-15T10:12:35.697Z,3.83
2023-04-15T10:15:04.686Z,3.45
2023-04-15T10:17:32.510Z,8.40
2023-04-15T10:20:00.907Z,5.80
2023-04-15T10:22:27.819Z,3.97
2023-04-15T10:24:54.714Z,4.20
2023-04-15T10:27:21.600Z,5.03
2023-04-15T10:29:48.520Z,8.23
2023-04-15T10:32:15.431Z,5.75
2023-04-15T10:34:42.282Z,7.43
2023-04-15T10:37:11.271Z,3.00
2023-04-15T10:39:42.392Z,3.75
2023-04-15T10:42:10.193Z,6.25
2023-04-15T10:44:37.222Z,3.15
2023-04-15T10:47:07.134Z,3.13
2023-04-15T10:49:34.010Z,3.38
2023-04-15T10:52:02.434Z,4.25
2023-04-15T10:54:33.458Z,6.35
2023-04-15T10:57:08.024Z,1.73
2023-04-15T10:59:37.078Z,2.80
2023-04-15T11:02:04.594Z,5.10
2023-04-15T11:04:58.712Z,5.70
2023-04-15T11:07:36.212Z,4.70
2023-04-15T11:10:04.857Z,2.80
2023-04-15T11:12:34.940Z,3.35
2023-04-15T11:15:16.878Z,3.67
2023-04-15T11:17:45.310Z,4.65
2023-04-15T11:20:15.526Z,3.03
2023-04-15T11:22:47.853Z,2.63
2023-04-15T11:25:23.834Z,7.40
2023-04-15T11:27:50.880Z,2.45
2023-04-15T11:30:21.493Z,3.08
2023-04-15T11:32:48.456Z,2.92
2023-04-15T11:35:16.207Z,2.65
2023-04-15T11:37:43.118Z,2.90
2023-04-15T11:40:10.579Z,2.85
2023-04-15T11:42:49.032Z,1.90
2023-04-15T11:45:16.649Z,2.38
2023-04-15T11:47:43.544Z,3.63
2023-04-15T11:50:17.254Z,4.60
2023-04-15T11:52:53.249Z,2.95
2023-04-15T11:55:20.130Z,2.88
2023-04-15T11:57:48.386Z,2.45
2023-04-15T12:00:15.546Z,3.05
2023-04-15T12:02:42.593Z,2.15
2023-04-15T12:05:09.668Z,1.92
2023-04-15T12:08:00.167Z,3.17
2023-04-15T12:10:27.058Z,2.25
2023-04-15T12:12:55.546Z,4.43
2023-04-15T12:15:22.696Z,2.08
2023-04-15T12:17:51.513Z,1.92
2023-04-15T12:20:22.419Z,2.35
2023-04-15T12:22:49.270Z,3.85
2023-04-15T12:25:16.211Z,2.95
2023-04-15T12:27:46.156Z,2.38
2023-04-15T12:30:14.580Z,3.25
2023-04-15T12:32:43.450Z,1.60
2023-04-15T12:35:10.474Z,2.35
2023-04-15T12:37:37.345Z,2.47
2023-04-15T12:40:04.718Z,2.72
2023-04-15T12:42:31.596Z,2.97
2023-04-15T12:44:58.445Z,2.33
2023-04-15T12:47:26.715Z,3.40
2023-04-15T12:49:53.610Z,2.78
2023-04-15T12:52:20.457Z,2.75
2023-04-15T12:54:47.322Z,2.05
2023-04-15T12:57:14.197Z,3.28
2023-04-15T12:59:41.038Z,3.78
2023-04-15T13:02:08.057Z,2.05
2023-04-15T13:04:36.470Z,4.10
2023-04-15T13:07:04.682Z,1.15
2023-04-15T13:09:31.555Z,1.60
2023-04-15T13:11:58.436Z,2.58
2023-04-15T13:14:25.407Z,2.75
2023-04-15T13:16:52.302Z,1.67
2023-04-15T13:19:19.211Z,2.92
2023-04-15T13:21:47.463Z,3.25
2023-04-15T13:24:14.330Z,1.88
2023-04-15T13:26:41.201Z,1.60
2023-04-15T13:29:08.181Z,4.25
2023-04-15T13:31:35.101Z,1.85
2023-04-15T13:34:02.006Z,1.85
2023-04-15T13:36:28.892Z,2.17
2023-04-15T13:38:57.135Z,1.83
2023-04-15T13:41:24.013Z,1.50
2023-04-15T13:43:50.900Z,2.03
2023-04-15T13:46:17.827Z,1.70
2023-04-15T13:48:44.747Z,2.58
2023-04-15T13:51:11.616Z,2.13
2023-04-15T13:53:39.803Z,1.75
2023-04-15T13:56:08.475Z,3.67
2023-04-15T13:58:36.345Z,1.35
2023-04-15T14:01:05.526Z,2.78
2023-04-15T14:03:33.229Z,2.72
2023-04-15T14:06:00.212Z,1.50
2023-04-15T14:08:27.056Z,2.10
2023-04-15T14:10:53.910Z,1.52
2023-04-15T14:13:22.143Z,1.90
2023-04-15T14:15:49.000Z,1.88
2023-04-15T14:18:15.869Z,3.53
2023-04-15T14:20:42.731Z,1.50
2023-04-15T14:23:09.606Z,1.95
2023-04-15T14:25:36.451Z,2.55
2023-04-15T14:28:03.571Z,1.70
2023-04-15T14:30:31.875Z,2.95
2023-04-15T14:32:58.811Z,2.40
2023-04-15T14:35:25.828Z,1.60
2023-04-15T14:37:53.210Z,2.53
2023-04-15T14:40:20.321Z,3.20
2023-04-15T14:42:47.315Z,2.45
2023-04-15T14:45:14.284Z,1.83
2023-04-15T14:47:42.583Z,2.08
2023-04-15T14:50:10.369Z,0.93
2023-04-15T14:52:37.198Z,2.38
2023-04-15T14:55:04.804Z,3.40
2023-04-15T14:57:31.723Z,2.38
2023-04-15T14:59:58.612Z,2.33
2023-04-15T15:02:38.473Z,1.40
2023-04-15T15:05:09.468Z,1.80
2023-04-15T15:07:36.444Z,2.10
2023-04-15T15:10:03.574Z,2.08
2023-04-15T15:12:30.436Z,1.63
2023-04-15T15:14:57.286Z,1.73
2023-04-15T15:17:24.180Z,1.55
2023-04-15T15:19:51.134Z,4.43
2023-04-15T15:22:21.285Z,2.17
2023-04-15T15:24:48.434Z,1.60
2023-04-15T15:27:15.314Z,2.97
2023-04-15T15:29:42.160Z,3.20
2023-04-15T15:32:09.005Z,4.22
2023-04-15T15:34:35.842Z,2.55
2023-04-15T15:37:02.726Z,1.42
2023-04-15T15:39:30.978Z,2.83
2023-04-15T15:41:57.853Z,1.52
2023-04-15T15:44:24.794Z,1.23
2023-04-15T15:46:51.777Z,1.20
2023-04-15T15:49:18.673Z,1.15
2023-04-15T15:51:45.541Z,1.73
2023-04-15T15:54:12.418Z,3.50
2023-04-15T15:56:40.662Z,2.13
2023-04-15T15:59:07.518Z,1.15
2023-04-15T16:01:34.387Z,1.60
2023-04-15T16:04:01.428Z,4.03
2023-04-15T16:06:28.417Z,2.20
2023-04-15T16:08:55.279Z,2.53
2023-04-15T16:11:22.153Z,1.35
2023-04-15T16:13:50.856Z,2.35
2023-04-15T16:16:17.900Z,1.65
2023-04-15T16:18:44.770Z,1.90
2023-04-15T16:21:11.649Z,2.00
2023-04-15T16:23:38.646Z,1.75
2023-04-15T16:26:05.710Z,2.08
2023-04-15T16:28:32.575Z,3.60
2023-04-15T16:31:00.798Z,2.50
2023-04-15T16:33:27.675Z,2.42
2023-04-15T16:35:54.524Z,1.38
2023-04-15T16:38:21.430Z,3.22
2023-04-15T16:40:48.298Z,1.30
2023-04-15T16:43:15.155Z,2.40
2023-04-15T16:45:42.025Z,1.42
2023-04-15T16:48:10.334Z,1.85
2023-04-15T16:50:37.241Z,1.83
2023-04-15T16:53:04.159Z,6.95
2023-04-15T16:55:31.004Z,7.97
2023-04-15T16:58:01.573Z,7.60
2023-04-15T17:00:30.498Z,7.93
2023-04-15T17:02:57.547Z,10.98
2023-04-15T17:05:26.119Z,2.75
2023-04-15T17:07:52.960Z,2.97
2023-04-15T17:10:19.833Z,47.22
2023-04-15T17:12:46.708Z,47.13
2023-04-15T17:15:13.614Z,69.20
2023-04-15T17:17:40.503Z,43.60
2023-04-15T17:20:07.699Z,57.47
2023-04-15T17:22:36.805Z,16.70
2023-04-15T17:25:04.105Z,18.30
2023-04-15T17:27:31.027Z,36.50
2023-04-15T17:29:57.925Z,33.25
2023-04-15T17:32:25.329Z,58.90
2023-04-15T17:34:52.209Z,38.90
2023-04-15T17:37:19.051Z,21.48
2023-04-15T17:39:47.368Z,36.97
2023-04-15T17:42:14.249Z,28.70
2023-04-15T17:44:41.270Z,31.17
2023-04-15T17:47:08.172Z,31.98
2023-04-15T17:49:35.085Z,44.42
2023-04-15T17:52:02.423Z,29.65
2023-04-15T17:54:29.286Z,41.63
2023-04-15T17:56:57.529Z,27.65
2023-04-15T17:59:24.379Z,31.40
2023-04-15T18:01:51.301Z,35.35
2023-04-15T18:04:18.233Z,38.80
2023-04-15T18:06:45.154Z,23.38
2023-04-15T18:09:12.030Z,18.38
2023-04-15T18:11:38.934Z,20.60
2023-04-15T18:14:07.403Z,24.58
2023-04-15T18:16:34.463Z,19.83
2023-04-15T18:19:01.355Z,20.70
2023-04-15T18:21:28.260Z,15.85
2023-04-15T18:23:55.175Z,23.38
2023-04-15T18:26:22.083Z,16.42
2023-04-15T18:28:48.980Z,17.50
2023-04-15T18:31:17.287Z,22.45
2023-04-15T18:33:44.178Z,15.95
2023-04-15T18:36:11.046Z,18.80
2023-04-15T18:38:37.911Z,16.85
2023-04-15T18:41:04.872Z,23.08
2023-04-15T18:43:31.762Z,16.25
2023-04-15T18:45:58.831Z,13.80
2023-04-15T18:48:27.337Z,12.90
2023-04-15T18:50:54.272Z,8.77
2023-04-15T18:53:21.248Z,6.78
2023-04-15T18:55:48.123Z,11.20
2023-04-15T18:58:14.994Z,9.98
2023-04-15T19:00:42.289Z,18.38
2023-04-15T19:03:09.265Z,15.52
2023-04-15T19:05:37.545Z,18.92
2023-04-15T19:08:04.543Z,231.35
2023-04-15T19:10:31.421Z,127.28
2023-04-15T19:12:58.266Z,57.08
2023-04-15T19:15:25.145Z,50.58
2023-04-15T19:17:52.025Z,29.52
2023-04-15T19:20:18.993Z,19.20
2023-04-15T19:22:47.269Z,24.08
2023-04-15T19:25:14.162Z,12.23
2023-04-15T19:27:41.026Z,15.02
2023-04-15T19:30:08.677Z,18.98
2023-04-15T19:32:35.771Z,15.43
2023-04-15T19:35:02.740Z,16.13
2023-04-15T19:37:29.713Z,16.60
2023-04-15T19:39:57.989Z,29.95
2023-04-15T19:42:24.978Z,60.80
2023-04-15T19:44:51.876Z,29.40
2023-04-15T19:47:18.806Z,21.40
2023-04-15T19:49:45.764Z,17.33
2023-04-15T19:52:12.967Z,13.85
2023-04-15T19:54:39.935Z,64.13
2023-04-15T19:57:08.329Z,23.30
2023-04-15T19:59:35.248Z,22.95
2023-04-15T20:02:02.338Z,22.80
2023-04-15T20:04:29.440Z,28.92
2023-04-15T20:06:56.443Z,11.82
2023-04-15T20:09:23.326Z,13.85
2023-04-15T20:12:46.880Z,12.52
2023-04-15T20:14:38.589Z,36.15
2023-04-15T20:17:05.472Z,88.15
2023-04-15T20:19:32.390Z,62.53
2023-04-15T20:21:59.283Z,29.35
2023-04-15T20:24:26.234Z,27.80
2023-04-15T20:26:53.180Z,26.45
2023-04-15T20:29:20.147Z,15.55
2023-04-15T20:31:48.898Z,20.05
2023-04-15T20:34:15.860Z,42.70
2023-04-15T20:36:42.746Z,29.13
2023-04-15T20:39:09.606Z,30.27
2023-04-15T20:41:36.458Z,14.23
2023-04-15T20:44:03.476Z,7.13
2023-04-15T20:46:30.401Z,9.07
2023-04-15T20:48:58.667Z,13.23
2023-04-15T20:51:25.533Z,9.75
2023-04-15T20:53:52.394Z,11.30
2023-04-15T20:56:19.261Z,11.43
2023-04-15T20:58:46.137Z,10.25
2023-04-15T21:01:13.169Z,7.50
2023-04-15T21:03:40.158Z,18.27
2023-04-15T21:06:08.569Z,9.77
2023-04-15T21:08:35.441Z,9.32
2023-04-15T21:11:02.336Z,9.07
2023-04-15T21:13:29.278Z,14.93
2023-04-15T21:15:56.205Z,12.55
2023-04-15T21:18:23.174Z,12.38
2023-04-15T21:20:56.294Z,10.98
2023-04-15T21:23:25.357Z,10.07
2023-04-15T21:25:52.318Z,11.20
2023-04-15T21:28:19.181Z,19.55
2023-04-15T21:30:46.028Z,18.02
2023-04-15T21:33:13.024Z,24.00
2023-04-15T21:35:39.960Z,16.40
2023-04-15T21:38:06.868Z,21.85
2023-04-15T21:40:35.141Z,24.55
2023-04-15T21:43:02.028Z,24.88
2023-04-15T21:45:28.990Z,23.13
2023-04-15T21:48:00.694Z,23.35
2023-04-15T21:50:35.972Z,20.90
2023-04-15T21:53:02.960Z,27.13
2023-04-15T21:55:29.825Z,12.88
2023-04-15T21:57:58.087Z,11.88
2023-04-15T22:00:24.929Z,24.58
2023-04-15T22:02:52.099Z,13.23
2023-04-15T22:05:19.225Z,14.07
2023-04-15T22:07:46.107Z,10.77
2023-04-15T22:10:13.001Z,19.25
2023-04-15T22:12:40.526Z,23.20
2023-04-15T22:15:09.806Z,16.58
2023-04-15T22:17:36.762Z,16.88
2023-04-15T22:20:03.981Z,15.23
2023-04-15T22:22:43.980Z,16.38
2023-04-15T22:25:11.453Z,19.55
2023-04-15T22:27:38.287Z,17.35
2023-04-15T22:30:06.273Z,27.90
2023-04-15T22:32:34.555Z,25.15
2023-04-15T22:35:01.538Z,16.75
2023-04-15T22:37:28.405Z,14.02
2023-04-15T22:39:55.270Z,16.95
2023-04-15T22:42:22.140Z,16.77
2023-04-15T22:44:49.458Z,14.23
2023-04-15T22:47:16.414Z,18.75
2023-04-15T22:49:44.625Z,13.00
2023-04-15T22:52:17.126Z,9.20
2023-04-15T22:54:44.210Z,12.23
2023-04-15T22:57:11.081Z,10.35
2023-04-15T22:59:37.973Z,13.88
2023-04-15T23:02:04.909Z,10.02
2023-04-15T23:04:32.124Z,11.60
2023-04-15T23:07:00.529Z,11.93
2023-04-15T23:09:27.392Z,12.30
2023-04-15T23:11:54.224Z,11.07
2023-04-15T23:14:21.090Z,10.38
2023-04-15T23:16:47.961Z,15.93
2023-04-15T23:19:14.804Z,12.45
2023-04-15T23:21:41.641Z,7.13
2023-04-15T23:24:09.866Z,6.13
2023-04-15T23:26:36.700Z,9.75
2023-04-15T23:29:03.572Z,8.65
2023-04-15T23:31:30.490Z,7.93
2023-04-15T23:33:57.337Z,11.77
2023-04-15T23:36:24.197Z,7.25
2023-04-15T23:38:51.099Z,6.22
2023-04-15T23:41:19.310Z,10.18
2023-04-15T23:43:46.142Z,10.00
2023-04-15T23:46:13.029Z,7.32
2023-04-15T23:48:39.961Z,6.78
2023-04-15T23:51:06.798Z,5.38
2023-04-15T23:53:33.636Z,9.35
2023-04-15T23:56:00.492Z,7.95
2023-04-15T23:58:29.120Z,5.22
